ASA1374 KLAX-MMLT
Flight info
| Callsign | ASA1374 |
|---|---|
| Flight time | 1h 30m |
| Altitude | 35000 |
| Route | PNDAH2 OTAYY DCT TIJ UT6 IMUSU UT25 LTO |
| Aircraft | B738/M-SDE2E3FGHIRWXY/LB1 |
Departure
| Time | 2026-05-04 03:53 |
|---|---|
| Airport | Los Angeles International Airport (KLAX) |
Arrival
| Time | 2026-05-04 05:23 |
|---|---|
| Airport | Loreto International Airport (MMLT) |
| Time | Latitude | Longitude | Altitude | Speed | Heading |
|---|---|---|---|---|---|
| 2026-05-04 03:27 | 33.93986 | -118.40192 | 125 ft | 0 kts | 26° |
| 2026-05-04 03:42 | 33.93972 | -118.40201 | 122 ft | 3 kts | 26° |
| 2026-05-04 03:42 | 33.93955 | -118.40211 | 122 ft | 3 kts | 26° |
| 2026-05-04 03:43 | 33.93949 | -118.40215 | 121 ft | 0 kts | 5° |
| 2026-05-04 03:43 | 33.93941 | -118.40216 | 123 ft | 0 kts | 336° |
| 2026-05-04 03:47 | 33.93943 | -118.40215 | 123 ft | 0 kts | 351° |
| 2026-05-04 03:47 | 33.93945 | -118.40213 | 122 ft | 0 kts | 25° |
| 2026-05-04 03:47 | 33.93946 | -118.40208 | 121 ft | 1 kts | 66° |
| 2026-05-04 03:47 | 33.93945 | -118.40185 | 121 ft | 7 kts | 87° |
| 2026-05-04 03:48 | 33.93952 | -118.40101 | 125 ft | 9 kts | 84° |
| 2026-05-04 03:48 | 33.93914 | -118.40042 | 121 ft | 9 kts | 141° |
| 2026-05-04 03:48 | 33.93885 | -118.39974 | 124 ft | 9 kts | 95° |
| 2026-05-04 03:48 | 33.93891 | -118.39887 | 125 ft | 13 kts | 83° |
| 2026-05-04 03:49 | 33.93904 | -118.39759 | 123 ft | 17 kts | 83° |
| 2026-05-04 03:49 | 33.93920 | -118.39597 | 125 ft | 21 kts | 83° |
| 2026-05-04 03:49 | 33.93939 | -118.39410 | 123 ft | 23 kts | 83° |
| 2026-05-04 03:49 | 33.93960 | -118.39214 | 125 ft | 24 kts | 83° |
| 2026-05-04 03:50 | 33.93979 | -118.39019 | 125 ft | 23 kts | 83° |
| 2026-05-04 03:50 | 33.93998 | -118.38832 | 120 ft | 22 kts | 83° |
| 2026-05-04 03:50 | 33.94017 | -118.38650 | 123 ft | 22 kts | 83° |
| 2026-05-04 03:50 | 33.94035 | -118.38473 | 124 ft | 21 kts | 83° |
| 2026-05-04 03:51 | 33.94052 | -118.38302 | 123 ft | 20 kts | 83° |
| 2026-05-04 03:51 | 33.94068 | -118.38143 | 125 ft | 15 kts | 83° |
| 2026-05-04 03:51 | 33.94074 | -118.38045 | 125 ft | 10 kts | 103° |
| 2026-05-04 03:51 | 33.94021 | -118.38005 | 122 ft | 10 kts | 178° |
| 2026-05-04 03:52 | 33.93982 | -118.38059 | 121 ft | 7 kts | 262° |
| 2026-05-04 03:52 | 33.93980 | -118.38075 | 122 ft | 0 kts | 262° |
| 2026-05-04 03:53 | 33.93965 | -118.38212 | 122 ft | 51 kts | 263° |
| 2026-05-04 03:53 | 33.93889 | -118.38966 | 125 ft | 128 kts | 263° |
| 2026-05-04 03:53 | 33.93763 | -118.40254 | 440 ft | 165 kts | 264° |
| 2026-05-04 03:53 | 33.93624 | -118.41604 | 1551 ft | 161 kts | 263° |
| 2026-05-04 03:54 | 33.93477 | -118.42948 | 2434 ft | 169 kts | 263° |
| 2026-05-04 03:54 | 33.93310 | -118.44450 | 2879 ft | 191 kts | 262° |
| 2026-05-04 03:54 | 33.93125 | -118.46107 | 3281 ft | 208 kts | 262° |
| 2026-05-04 03:54 | 33.92743 | -118.47868 | 3617 ft | 227 kts | 242° |
| 2026-05-04 03:55 | 33.91690 | -118.49283 | 4227 ft | 237 kts | 217° |
| 2026-05-04 03:55 | 33.90205 | -118.50343 | 4798 ft | 249 kts | 213° |
| 2026-05-04 03:55 | 33.88742 | -118.51412 | 5212 ft | 253 kts | 209° |
| 2026-05-04 03:55 | 33.87112 | -118.52271 | 5416 ft | 257 kts | 199° |
| 2026-05-04 03:56 | 33.85308 | -118.52520 | 6107 ft | 265 kts | 179° |
| 2026-05-04 03:56 | 33.83452 | -118.52397 | 6909 ft | 269 kts | 181° |
| 2026-05-04 03:56 | 33.81568 | -118.52300 | 7758 ft | 270 kts | 180° |
| 2026-05-04 03:56 | 33.79704 | -118.52164 | 8704 ft | 267 kts | 179° |
| 2026-05-04 03:57 | 33.77847 | -118.52083 | 9584 ft | 267 kts | 182° |
| 2026-05-04 03:57 | 33.75972 | -118.52046 | 10274 ft | 274 kts | 182° |
| 2026-05-04 03:57 | 33.74004 | -118.52021 | 10664 ft | 293 kts | 182° |
| 2026-05-04 03:57 | 33.71888 | -118.51763 | 10859 ft | 320 kts | 168° |
| 2026-05-04 03:58 | 33.68025 | -118.48714 | 11820 ft | 358 kts | 128° |
| 2026-05-04 03:58 | 33.66831 | -118.46047 | 12557 ft | 365 kts | 117° |
| 2026-05-04 03:58 | 33.65788 | -118.43303 | 13311 ft | 368 kts | 119° |
| 2026-05-04 03:59 | 33.64637 | -118.40542 | 14017 ft | 371 kts | 121° |
| 2026-05-04 03:59 | 33.63455 | -118.37757 | 14503 ft | 380 kts | 121° |
| 2026-05-04 03:59 | 33.62225 | -118.34884 | 14787 ft | 394 kts | 122° |
| 2026-05-04 03:59 | 33.60917 | -118.31950 | 15175 ft | 403 kts | 123° |
| 2026-05-04 04:00 | 33.59642 | -118.28938 | 15842 ft | 405 kts | 122° |
| 2026-05-04 04:00 | 33.58376 | -118.25908 | 16430 ft | 409 kts | 123° |
| 2026-05-04 04:00 | 33.57064 | -118.22834 | 16765 ft | 420 kts | 123° |
| 2026-05-04 04:00 | 33.55725 | -118.19690 | 17221 ft | 426 kts | 123° |
| 2026-05-04 04:01 | 33.54370 | -118.16500 | 17741 ft | 431 kts | 124° |
| 2026-05-04 04:01 | 33.52978 | -118.13304 | 18257 ft | 435 kts | 125° |
| 2026-05-04 04:01 | 33.51555 | -118.10067 | 18646 ft | 441 kts | 124° |
| 2026-05-04 04:01 | 33.50145 | -118.06825 | 19039 ft | 447 kts | 124° |
| 2026-05-04 04:02 | 33.48708 | -118.03508 | 19483 ft | 450 kts | 124° |
| 2026-05-04 04:02 | 33.47129 | -118.00279 | 19937 ft | 446 kts | 133° |
| 2026-05-04 04:02 | 33.45204 | -117.97401 | 20441 ft | 439 kts | 141° |
| 2026-05-04 04:02 | 33.43066 | -117.94821 | 21032 ft | 434 kts | 145° |
| 2026-05-04 04:03 | 33.40820 | -117.92417 | 21529 ft | 433 kts | 148° |
| 2026-05-04 04:03 | 33.38519 | -117.90043 | 21865 ft | 440 kts | 148° |
| 2026-05-04 04:03 | 33.36189 | -117.87632 | 22245 ft | 444 kts | 148° |
| 2026-05-04 04:03 | 33.33865 | -117.85212 | 22867 ft | 442 kts | 148° |
| 2026-05-04 04:04 | 33.31557 | -117.82787 | 23445 ft | 442 kts | 148° |
| 2026-05-04 04:04 | 33.29242 | -117.80347 | 23810 ft | 446 kts | 148° |
| 2026-05-04 04:04 | 33.26891 | -117.77889 | 24071 ft | 451 kts | 148° |
| 2026-05-04 04:04 | 33.24511 | -117.75403 | 24334 ft | 457 kts | 148° |
| 2026-05-04 04:05 | 33.22113 | -117.72889 | 24627 ft | 460 kts | 149° |
| 2026-05-04 04:05 | 33.19727 | -117.70402 | 25001 ft | 461 kts | 149° |
| 2026-05-04 04:05 | 33.17305 | -117.67882 | 25437 ft | 461 kts | 149° |
| 2026-05-04 04:05 | 33.14894 | -117.65322 | 25728 ft | 467 kts | 148° |
| 2026-05-04 04:06 | 33.12484 | -117.62670 | 25837 ft | 476 kts | 148° |
| 2026-05-04 04:06 | 33.10054 | -117.59950 | 26044 ft | 481 kts | 147° |
| 2026-05-04 04:06 | 33.07612 | -117.57196 | 26333 ft | 483 kts | 147° |
| 2026-05-04 04:06 | 33.05173 | -117.54428 | 26650 ft | 485 kts | 147° |
| 2026-05-04 04:07 | 33.02715 | -117.51657 | 26889 ft | 487 kts | 148° |
| 2026-05-04 04:07 | 33.00274 | -117.48929 | 27279 ft | 486 kts | 148° |
| 2026-05-04 04:07 | 32.97816 | -117.46188 | 27704 ft | 484 kts | 148° |
| 2026-05-04 04:07 | 32.95350 | -117.43448 | 27991 ft | 486 kts | 148° |
| 2026-05-04 04:08 | 32.92860 | -117.40698 | 28134 ft | 490 kts | 149° |
| 2026-05-04 04:08 | 32.90332 | -117.37943 | 28289 ft | 495 kts | 149° |
| 2026-05-04 04:08 | 32.87801 | -117.35154 | 28598 ft | 496 kts | 149° |
| 2026-05-04 04:08 | 32.85281 | -117.32359 | 28977 ft | 495 kts | 149° |
| 2026-05-04 04:09 | 32.82756 | -117.29570 | 29251 ft | 496 kts | 149° |
| 2026-05-04 04:09 | 32.80220 | -117.26757 | 29421 ft | 500 kts | 149° |
| 2026-05-04 04:09 | 32.77673 | -117.23925 | 29608 ft | 503 kts | 149° |
| 2026-05-04 04:09 | 32.75100 | -117.21071 | 29842 ft | 505 kts | 149° |
| 2026-05-04 04:10 | 32.72532 | -117.18232 | 30134 ft | 505 kts | 149° |
| 2026-05-04 04:10 | 32.69957 | -117.15395 | 30402 ft | 504 kts | 149° |
| 2026-05-04 04:10 | 32.67380 | -117.12566 | 30648 ft | 505 kts | 149° |
| 2026-05-04 04:10 | 32.64854 | -117.09650 | 30933 ft | 509 kts | 145° |
| 2026-05-04 04:11 | 32.63268 | -117.07612 | 31362 ft | 506 kts | 143° |
| 2026-05-04 04:11 | 32.60196 | -117.03464 | 31924 ft | 504 kts | 143° |
| 2026-05-04 04:11 | 32.57869 | -117.00341 | 32105 ft | 506 kts | 143° |
| 2026-05-04 04:11 | 32.55503 | -116.97238 | 32300 ft | 508 kts | 144° |
| 2026-05-04 04:12 | 32.53068 | -116.94244 | 32580 ft | 498 kts | 150° |
| 2026-05-04 04:12 | 32.51316 | -116.92451 | 32815 ft | 491 kts | 153° |
| 2026-05-04 04:12 | 32.48674 | -116.89918 | 33189 ft | 486 kts | 154° |
| 2026-05-04 04:12 | 32.46022 | -116.87441 | 33468 ft | 485 kts | 155° |
| 2026-05-04 04:13 | 32.43401 | -116.84997 | 33681 ft | 486 kts | 154° |
| 2026-05-04 04:13 | 32.40748 | -116.82500 | 33854 ft | 489 kts | 154° |
| 2026-05-04 04:13 | 32.38088 | -116.79969 | 34107 ft | 490 kts | 153° |
| 2026-05-04 04:13 | 32.35448 | -116.77436 | 34362 ft | 489 kts | 153° |
| 2026-05-04 04:14 | 32.32810 | -116.74895 | 34637 ft | 488 kts | 153° |
| 2026-05-04 04:14 | 32.30183 | -116.72363 | 34894 ft | 487 kts | 153° |
| 2026-05-04 04:14 | 32.27553 | -116.69836 | 35030 ft | 489 kts | 153° |
| 2026-05-04 04:14 | 32.24895 | -116.67289 | 35013 ft | 491 kts | 153° |
| 2026-05-04 04:15 | 32.19601 | -116.62210 | 35010 ft | 486 kts | 153° |
| 2026-05-04 04:15 | 32.14380 | -116.57208 | 35021 ft | 483 kts | 153° |
| 2026-05-04 04:16 | 32.09212 | -116.52106 | 35024 ft | 485 kts | 152° |
| 2026-05-04 04:16 | 32.04100 | -116.46989 | 35002 ft | 485 kts | 152° |
| 2026-05-04 04:17 | 31.98939 | -116.41850 | 35023 ft | 487 kts | 152° |
| 2026-05-04 04:17 | 31.93735 | -116.36696 | 35014 ft | 490 kts | 152° |
| 2026-05-04 04:18 | 31.88498 | -116.31517 | 35013 ft | 493 kts | 152° |
| 2026-05-04 04:18 | 31.83231 | -116.26312 | 35002 ft | 495 kts | 152° |
| 2026-05-04 04:19 | 31.77952 | -116.21102 | 35003 ft | 495 kts | 151° |
| 2026-05-04 04:19 | 31.72651 | -116.15921 | 35008 ft | 494 kts | 153° |
| 2026-05-04 04:20 | 31.67213 | -116.11045 | 35001 ft | 491 kts | 155° |
| 2026-05-04 04:20 | 31.61734 | -116.06266 | 35000 ft | 491 kts | 155° |
| 2026-05-04 04:21 | 31.56269 | -116.01454 | 34992 ft | 490 kts | 154° |
| 2026-05-04 04:21 | 31.50868 | -115.96660 | 34987 ft | 489 kts | 154° |
| 2026-05-04 04:22 | 31.45450 | -115.91847 | 34980 ft | 488 kts | 154° |
| 2026-05-04 04:22 | 31.40034 | -115.87046 | 34972 ft | 488 kts | 154° |
| 2026-05-04 04:23 | 31.34629 | -115.82263 | 34980 ft | 487 kts | 154° |
| 2026-05-04 04:23 | 31.29227 | -115.77490 | 34987 ft | 486 kts | 154° |
| 2026-05-04 04:24 | 31.23830 | -115.72730 | 34948 ft | 486 kts | 154° |
| 2026-05-04 04:24 | 31.18442 | -115.67981 | 34992 ft | 483 kts | 154° |
| 2026-05-04 04:25 | 31.13057 | -115.63248 | 34934 ft | 484 kts | 154° |
| 2026-05-04 04:25 | 31.07694 | -115.58541 | 34950 ft | 487 kts | 154° |
| 2026-05-04 04:26 | 31.02276 | -115.53789 | 34943 ft | 488 kts | 154° |
| 2026-05-04 04:26 | 30.96843 | -115.49029 | 34929 ft | 489 kts | 154° |
| 2026-05-04 04:27 | 30.91394 | -115.44264 | 34929 ft | 490 kts | 154° |
| 2026-05-04 04:27 | 30.85926 | -115.39487 | 34929 ft | 492 kts | 154° |
| 2026-05-04 04:28 | 30.80437 | -115.34697 | 34912 ft | 494 kts | 153° |
| 2026-05-04 04:28 | 30.74987 | -115.29743 | 34929 ft | 499 kts | 152° |
| 2026-05-04 04:29 | 30.69571 | -115.24692 | 34894 ft | 498 kts | 152° |
| 2026-05-04 04:29 | 30.64204 | -115.19703 | 34906 ft | 497 kts | 152° |
| 2026-05-04 04:30 | 30.58788 | -115.14707 | 34888 ft | 496 kts | 152° |
| 2026-05-04 04:30 | 30.53393 | -115.09748 | 34892 ft | 493 kts | 152° |
| 2026-05-04 04:31 | 30.48016 | -115.04816 | 34911 ft | 493 kts | 152° |
| 2026-05-04 04:31 | 30.42642 | -114.99893 | 34911 ft | 492 kts | 152° |
| 2026-05-04 04:32 | 30.37265 | -114.94976 | 34915 ft | 492 kts | 153° |
| 2026-05-04 04:32 | 30.31894 | -114.90070 | 34936 ft | 491 kts | 153° |
| 2026-05-04 04:33 | 30.26518 | -114.85165 | 34939 ft | 491 kts | 153° |
| 2026-05-04 04:33 | 30.21183 | -114.80304 | 34965 ft | 491 kts | 153° |
| 2026-05-04 04:34 | 30.15813 | -114.75420 | 34898 ft | 491 kts | 152° |
| 2026-05-04 04:34 | 30.10440 | -114.70538 | 34959 ft | 491 kts | 152° |
| 2026-05-04 04:35 | 30.05062 | -114.65661 | 34981 ft | 492 kts | 152° |
| 2026-05-04 04:35 | 29.99681 | -114.60786 | 34969 ft | 492 kts | 152° |
| 2026-05-04 04:36 | 29.94266 | -114.55892 | 34946 ft | 496 kts | 152° |
| 2026-05-04 04:36 | 29.88829 | -114.50981 | 34964 ft | 496 kts | 151° |
| 2026-05-04 04:37 | 29.77970 | -114.41188 | 34984 ft | 497 kts | 151° |
| 2026-05-04 04:38 | 29.72521 | -114.36286 | 35007 ft | 498 kts | 152° |
| 2026-05-04 04:38 | 29.67056 | -114.31378 | 34980 ft | 498 kts | 152° |
| 2026-05-04 04:39 | 29.61604 | -114.26484 | 35008 ft | 496 kts | 152° |
| 2026-05-04 04:39 | 29.56156 | -114.21607 | 34983 ft | 496 kts | 152° |
| 2026-05-04 04:40 | 29.50712 | -114.16739 | 35001 ft | 496 kts | 152° |
| 2026-05-04 04:40 | 29.45276 | -114.11883 | 34977 ft | 495 kts | 151° |
| 2026-05-04 04:41 | 29.39875 | -114.07066 | 34988 ft | 494 kts | 151° |
| 2026-05-04 04:41 | 29.34454 | -114.02235 | 35007 ft | 492 kts | 151° |
| 2026-05-04 04:42 | 29.29048 | -113.97426 | 34994 ft | 491 kts | 152° |
| 2026-05-04 04:42 | 29.23649 | -113.92633 | 34981 ft | 491 kts | 151° |
| 2026-05-04 04:43 | 29.18271 | -113.87862 | 35011 ft | 489 kts | 151° |
| 2026-05-04 04:43 | 29.12887 | -113.83092 | 35009 ft | 490 kts | 151° |
| 2026-05-04 04:44 | 29.07483 | -113.78311 | 35022 ft | 492 kts | 151° |
| 2026-05-04 04:44 | 29.02095 | -113.73552 | 35009 ft | 493 kts | 150° |
| 2026-05-04 04:45 | 28.96659 | -113.68755 | 35023 ft | 495 kts | 150° |
| 2026-05-04 04:47 | 28.77527 | -113.51909 | 35011 ft | 494 kts | 150° |
| 2026-05-04 04:47 | 28.72085 | -113.47129 | 34991 ft | 493 kts | 150° |
| 2026-05-04 04:48 | 28.66667 | -113.42381 | 34983 ft | 490 kts | 150° |
| 2026-05-04 04:49 | 28.53220 | -113.30624 | 34987 ft | 488 kts | 150° |
| 2026-05-04 04:49 | 28.47834 | -113.25926 | 34989 ft | 488 kts | 150° |
| 2026-05-04 04:50 | 28.42441 | -113.21227 | 34987 ft | 488 kts | 150° |
| 2026-05-04 04:50 | 28.37052 | -113.16538 | 34991 ft | 488 kts | 150° |
| 2026-05-04 04:51 | 28.31651 | -113.11846 | 34983 ft | 489 kts | 150° |
| 2026-05-04 04:51 | 28.26236 | -113.07147 | 34982 ft | 490 kts | 150° |
| 2026-05-04 04:52 | 28.20804 | -113.02439 | 35000 ft | 491 kts | 150° |
| 2026-05-04 04:52 | 28.15404 | -112.97765 | 35004 ft | 492 kts | 150° |
| 2026-05-04 04:53 | 28.09956 | -112.93056 | 34964 ft | 493 kts | 150° |
| 2026-05-04 04:53 | 28.04500 | -112.88345 | 34992 ft | 494 kts | 149° |
| 2026-05-04 04:54 | 27.99025 | -112.83625 | 34987 ft | 495 kts | 150° |
| 2026-05-04 04:54 | 27.93542 | -112.78904 | 34995 ft | 496 kts | 150° |
| 2026-05-04 04:55 | 27.88970 | -112.74971 | 34987 ft | 497 kts | 150° |
| 2026-05-04 04:55 | 27.82546 | -112.69452 | 34978 ft | 496 kts | 149° |
| 2026-05-04 04:56 | 27.77977 | -112.65532 | 34974 ft | 495 kts | 149° |
| 2026-05-04 04:56 | 27.72496 | -112.60836 | 34989 ft | 494 kts | 150° |
| 2026-05-04 04:57 | 27.67010 | -112.56142 | 34991 ft | 494 kts | 150° |
| 2026-05-04 04:57 | 27.61539 | -112.51466 | 34978 ft | 493 kts | 150° |
| 2026-05-04 04:58 | 27.56067 | -112.46796 | 34993 ft | 492 kts | 150° |
| 2026-05-04 04:58 | 27.50638 | -112.42168 | 34987 ft | 492 kts | 149° |
| 2026-05-04 04:59 | 27.45174 | -112.37517 | 34959 ft | 492 kts | 149° |
| 2026-05-04 04:59 | 27.42425 | -112.35181 | 34407 ft | 498 kts | 149° |
| 2026-05-04 04:59 | 27.39660 | -112.32829 | 33810 ft | 497 kts | 149° |
| 2026-05-04 05:00 | 27.36901 | -112.30483 | 33093 ft | 497 kts | 149° |
| 2026-05-04 05:00 | 27.34139 | -112.28137 | 32408 ft | 498 kts | 149° |
| 2026-05-04 05:00 | 27.28436 | -112.23765 | 31005 ft | 494 kts | 155° |
| 2026-05-04 05:01 | 27.25508 | -112.21772 | 30489 ft | 490 kts | 156° |
| 2026-05-04 05:01 | 27.22587 | -112.19819 | 29924 ft | 487 kts | 156° |
| 2026-05-04 05:01 | 27.19726 | -112.17902 | 29348 ft | 483 kts | 156° |
| 2026-05-04 05:01 | 27.16862 | -112.15964 | 28803 ft | 478 kts | 155° |
| 2026-05-04 05:02 | 27.14034 | -112.14032 | 28274 ft | 474 kts | 155° |
| 2026-05-04 05:02 | 27.11234 | -112.12108 | 27749 ft | 469 kts | 155° |
| 2026-05-04 05:02 | 27.08469 | -112.10203 | 27248 ft | 465 kts | 155° |
| 2026-05-04 05:02 | 27.05721 | -112.08310 | 26746 ft | 461 kts | 154° |
| 2026-05-04 05:03 | 27.03004 | -112.06438 | 26246 ft | 457 kts | 154° |
| 2026-05-04 05:03 | 27.00303 | -112.04579 | 25744 ft | 453 kts | 154° |
| 2026-05-04 05:04 | 26.92305 | -111.99085 | 24239 ft | 445 kts | 154° |
| 2026-05-04 05:04 | 26.89671 | -111.97277 | 23735 ft | 443 kts | 154° |
| 2026-05-04 05:04 | 26.87045 | -111.95478 | 23176 ft | 441 kts | 153° |
| 2026-05-04 05:06 | 26.69312 | -111.83340 | 19802 ft | 414 kts | 153° |
| 2026-05-04 05:06 | 26.66863 | -111.81667 | 19268 ft | 412 kts | 153° |
| 2026-05-04 05:06 | 26.64418 | -111.79997 | 18786 ft | 410 kts | 153° |
| 2026-05-04 05:07 | 26.61995 | -111.78343 | 18284 ft | 407 kts | 153° |
| 2026-05-04 05:07 | 26.59615 | -111.76718 | 17791 ft | 403 kts | 153° |
| 2026-05-04 05:07 | 26.57231 | -111.75092 | 17317 ft | 399 kts | 153° |
| 2026-05-04 05:09 | 26.38853 | -111.62582 | 13728 ft | 378 kts | 152° |
| 2026-05-04 05:09 | 26.36641 | -111.61079 | 13252 ft | 376 kts | 151° |
| 2026-05-04 05:10 | 26.34417 | -111.59569 | 12788 ft | 373 kts | 151° |
| 2026-05-04 05:10 | 26.32209 | -111.58070 | 12349 ft | 370 kts | 151° |
| 2026-05-04 05:10 | 26.30014 | -111.56581 | 11905 ft | 368 kts | 150° |
| 2026-05-04 05:10 | 26.27835 | -111.55103 | 11468 ft | 366 kts | 150° |
| 2026-05-04 05:11 | 26.25662 | -111.53631 | 11009 ft | 364 kts | 150° |
| 2026-05-04 05:11 | 26.23530 | -111.52186 | 10831 ft | 354 kts | 150° |
| 2026-05-04 05:11 | 26.21455 | -111.50779 | 10663 ft | 344 kts | 150° |
| 2026-05-04 05:11 | 26.19435 | -111.49411 | 10511 ft | 335 kts | 150° |
| 2026-05-04 05:12 | 26.17474 | -111.48084 | 10370 ft | 326 kts | 150° |
| 2026-05-04 05:12 | 26.15562 | -111.46790 | 10245 ft | 317 kts | 150° |
| 2026-05-04 05:12 | 26.13697 | -111.45529 | 10120 ft | 309 kts | 150° |
| 2026-05-04 05:12 | 26.11878 | -111.44300 | 10006 ft | 301 kts | 150° |
| 2026-05-04 05:13 | 26.10095 | -111.43095 | 9611 ft | 304 kts | 150° |
| 2026-05-04 05:13 | 26.08298 | -111.41882 | 9271 ft | 301 kts | 150° |
| 2026-05-04 05:13 | 26.06524 | -111.40684 | 8966 ft | 295 kts | 150° |
| 2026-05-04 05:13 | 26.04788 | -111.39512 | 8661 ft | 289 kts | 150° |
| 2026-05-04 05:14 | 26.03083 | -111.38361 | 8367 ft | 283 kts | 150° |
| 2026-05-04 05:14 | 26.01402 | -111.37228 | 8092 ft | 282 kts | 149° |
| 2026-05-04 05:14 | 25.99728 | -111.36099 | 7817 ft | 281 kts | 150° |
| 2026-05-04 05:14 | 25.98057 | -111.34971 | 7531 ft | 280 kts | 149° |
| 2026-05-04 05:15 | 25.96466 | -111.33719 | 7258 ft | 280 kts | 143° |
| 2026-05-04 05:15 | 25.94933 | -111.32386 | 6994 ft | 279 kts | 142° |
| 2026-05-04 05:15 | 25.93409 | -111.31045 | 6717 ft | 279 kts | 142° |
| 2026-05-04 05:15 | 25.91905 | -111.29732 | 6446 ft | 278 kts | 142° |
| 2026-05-04 05:16 | 25.90391 | -111.28419 | 6135 ft | 273 kts | 142° |
| 2026-05-04 05:16 | 25.88906 | -111.27139 | 5828 ft | 267 kts | 143° |
| 2026-05-04 05:16 | 25.87452 | -111.25891 | 5561 ft | 263 kts | 143° |
| 2026-05-04 05:16 | 25.86011 | -111.24657 | 5305 ft | 261 kts | 143° |
| 2026-05-04 05:17 | 25.84573 | -111.23428 | 5044 ft | 261 kts | 144° |
| 2026-05-04 05:17 | 25.83136 | -111.22201 | 4829 ft | 259 kts | 144° |
| 2026-05-04 05:17 | 25.81704 | -111.21029 | 4685 ft | 252 kts | 153° |
| 2026-05-04 05:17 | 25.80067 | -111.20690 | 4554 ft | 236 kts | 195° |
| 2026-05-04 05:18 | 25.78715 | -111.21537 | 4515 ft | 217 kts | 226° |
| 2026-05-04 05:18 | 25.77971 | -111.22894 | 4404 ft | 205 kts | 254° |
| 2026-05-04 05:18 | 25.77922 | -111.24413 | 4327 ft | 193 kts | 281° |
| 2026-05-04 05:18 | 25.78490 | -111.25718 | 4216 ft | 186 kts | 306° |
| 2026-05-04 05:19 | 25.79481 | -111.26635 | 3993 ft | 188 kts | 331° |
| 2026-05-04 05:19 | 25.80678 | -111.27184 | 3789 ft | 185 kts | 334° |
| 2026-05-04 05:19 | 25.81872 | -111.27719 | 3610 ft | 184 kts | 334° |
| 2026-05-04 05:19 | 25.83058 | -111.28249 | 3402 ft | 183 kts | 334° |
| 2026-05-04 05:20 | 25.84239 | -111.28777 | 3184 ft | 183 kts | 335° |
| 2026-05-04 05:20 | 25.85415 | -111.29301 | 2964 ft | 183 kts | 335° |
| 2026-05-04 05:20 | 25.86599 | -111.29830 | 2744 ft | 183 kts | 335° |
| 2026-05-04 05:20 | 25.87778 | -111.30356 | 2481 ft | 182 kts | 336° |
| 2026-05-04 05:21 | 25.88930 | -111.30870 | 2251 ft | 172 kts | 336° |
| 2026-05-04 05:21 | 25.89996 | -111.31344 | 2002 ft | 162 kts | 335° |
| 2026-05-04 05:21 | 25.91034 | -111.31807 | 1771 ft | 161 kts | 334° |
| 2026-05-04 05:21 | 25.92073 | -111.32272 | 1514 ft | 160 kts | 335° |
| 2026-05-04 05:22 | 25.93099 | -111.32731 | 1286 ft | 158 kts | 336° |
| 2026-05-04 05:22 | 25.94106 | -111.33181 | 1047 ft | 158 kts | 335° |
| 2026-05-04 05:22 | 25.95121 | -111.33632 | 805 ft | 157 kts | 334° |
| 2026-05-04 05:22 | 25.96141 | -111.34070 | 544 ft | 157 kts | 337° |
| 2026-05-04 05:23 | 25.97154 | -111.34467 | 312 ft | 152 kts | 340° |
| 2026-05-04 05:23 | 25.98179 | -111.34736 | 57 ft | 151 kts | 350° |
| 2026-05-04 05:23 | 25.99070 | -111.34853 | 15 ft | 79 kts | 353° |
| 2026-05-04 05:23 | 25.99289 | -111.34882 | 17 ft | 7 kts | 354° |
| 2026-05-04 05:24 | 25.99339 | -111.34891 | 18 ft | 7 kts | 341° |
| 2026-05-04 05:24 | 25.99364 | -111.34936 | 19 ft | 7 kts | 279° |
| 2026-05-04 05:24 | 25.99361 | -111.34994 | 19 ft | 9 kts | 263° |
| 2026-05-04 05:24 | 25.99353 | -111.35069 | 19 ft | 11 kts | 264° |
| 2026-05-04 05:25 | 25.99342 | -111.35150 | 20 ft | 9 kts | 251° |
| 2026-05-04 05:25 | 25.99292 | -111.35175 | 20 ft | 6 kts | 180° |
| 2026-05-04 05:25 | 25.99266 | -111.35180 | 20 ft | 3 kts | 229° |
| 2026-05-04 05:25 | 25.99258 | -111.35203 | 20 ft | 3 kts | 253° |
| 2026-05-04 05:26 | 25.99258 | -111.35220 | 20 ft | 0 kts | 276° |